Time;durP1;ratioP1;P1;durP2;ratioP2;P2;SDS_P1;SDS_P2;PMS_P1;PMS_P2;Temp;Humidity;BMP_temperature;BMP_pressure;BME280_temperature;BME280_humidity;BME280_pressure;Samples;Min_cycle;Max_cycle;Signal;HPM_P1;HPM_P2
2022/07/05 00:00:59;;;;;;;2.22;2.00;;;;;;;;;;5038257;28;20032;-83
2022/07/05 00:03:25;;;;;;;3.15;2.03;;;;;;;;;;5054942;28;20044;-84
2022/07/05 00:05:51;;;;;;;2.20;1.90;;;;;;;;;;5057043;28;20021;-82
2022/07/05 00:08:17;;;;;;;2.50;2.10;;;;;;;;;;5055128;28;20029;-82
2022/07/05 00:10:43;;;;;;;4.25;2.03;;;;;;;;;;5045215;28;20037;-82
2022/07/05 00:13:09;;;;;;;2.75;2.33;;;;;;;;;;5044617;28;20083;-83
2022/07/05 00:15:36;;;;;;;3.20;2.28;;;;;;;;;;5047490;28;20024;-82
2022/07/05 00:18:02;;;;;;;3.33;2.38;;;;;;;;;;5055339;28;20498;-82
2022/07/05 00:20:28;;;;;;;2.55;2.10;;;;;;;;;;5054671;28;20035;-82
2022/07/05 00:22:54;;;;;;;2.30;2.10;;;;;;;;;;5055891;28;20056;-82
2022/07/05 00:25:20;;;;;;;2.97;2.25;;;;;;;;;;5043193;28;20219;-82
2022/07/05 00:27:46;;;;;;;2.33;1.98;;;;;;;;;;5039082;28;20427;-83
2022/07/05 00:30:12;;;;;;;2.55;1.95;;;;;;;;;;5044172;28;20017;-82
2022/07/05 00:32:38;;;;;;;3.65;2.00;;;;;;;;;;5057994;28;20383;-85
2022/07/05 00:35:05;;;;;;;2.60;2.35;;;;;;;;;;5041208;28;20037;-83
2022/07/05 00:37:31;;;;;;;2.47;2.10;;;;;;;;;;5058762;28;20025;-82
2022/07/05 00:39:57;;;;;;;2.13;2.03;;;;;;;;;;5041353;28;20386;-82
2022/07/05 00:42:23;;;;;;;2.67;2.40;;;;;;;;;;5056135;28;20033;-82
2022/07/05 00:44:49;;;;;;;2.65;2.00;;;;;;;;;;5039312;28;20021;-82
2022/07/05 00:47:15;;;;;;;2.60;2.22;;;;;;;;;;5057837;28;20025;-82
2022/07/05 00:49:42;;;;;;;2.38;2.00;;;;;;;;;;5058002;28;20021;-82
2022/07/05 00:52:08;;;;;;;2.40;2.20;;;;;;;;;;5052899;28;20031;-82
2022/07/05 00:54:35;;;;;;;3.50;2.47;;;;;;;;;;5040195;28;20029;-82
2022/07/05 00:57:02;;;;;;;2.95;2.30;;;;;;;;;;5056970;28;20633;-82
2022/07/05 00:59:28;;;;;;;3.28;2.20;;;;;;;;;;5057493;28;20029;-82
2022/07/05 01:01:55;;;;;;;2.88;2.53;;;;;;;;;;5032462;28;20026;-82
2022/07/05 01:04:20;;;;;;;3.95;2.20;;;;;;;;;;5036641;28;20037;-80
2022/07/05 01:06:48;;;;;;;3.95;2.55;;;;;;;;;;5048142;28;20032;-83
2022/07/05 01:09:15;;;;;;;3.53;2.30;;;;;;;;;;5054184;28;20044;-83
2022/07/05 01:11:42;;;;;;;3.65;2.40;;;;;;;;;;5040861;28;20116;-83
2022/07/05 01:14:10;;;;;;;3.33;2.20;;;;;;;;;;5042268;28;20054;-82
2022/07/05 01:16:38;;;;;;;2.17;1.98;;;;;;;;;;5041980;28;20022;-82
2022/07/05 01:19:09;;;;;;;3.50;2.07;;;;;;;;;;5039439;28;20022;-84
2022/07/05 01:21:38;;;;;;;2.28;1.92;;;;;;;;;;5041732;28;20284;-84
2022/07/05 01:24:05;;;;;;;2.35;2.15;;;;;;;;;;5059275;28;20135;-82
2022/07/05 01:26:31;;;;;;;2.63;1.90;;;;;;;;;;5042945;28;20478;-82
2022/07/05 01:28:57;;;;;;;2.38;1.92;;;;;;;;;;5055815;28;20056;-84
2022/07/05 01:31:23;;;;;;;3.38;2.28;;;;;;;;;;5053850;28;20403;-82
2022/07/05 01:33:49;;;;;;;2.28;1.85;;;;;;;;;;5037960;28;20422;-82
2022/07/05 01:36:16;;;;;;;2.78;1.90;;;;;;;;;;5056215;28;20025;-81
2022/07/05 01:38:42;;;;;;;2.35;1.80;;;;;;;;;;5057942;28;20447;-82
2022/07/05 01:41:09;;;;;;;2.70;2.13;;;;;;;;;;5040753;28;20029;-82
2022/07/05 01:43:35;;;;;;;2.63;1.95;;;;;;;;;;5060803;28;20029;-82
2022/07/05 01:46:02;;;;;;;2.10;1.70;;;;;;;;;;5055965;28;20048;-83
2022/07/05 01:48:29;;;;;;;2.55;2.17;;;;;;;;;;5045907;28;20428;-84
2022/07/05 01:51:00;;;;;;;1.90;1.70;;;;;;;;;;5036484;28;20028;-83
2022/07/05 01:53:30;;;;;;;2.35;1.88;;;;;;;;;;5058804;28;20064;-83
2022/07/05 01:55:56;;;;;;;2.20;2.00;;;;;;;;;;5039742;28;20035;-83
2022/07/05 01:58:23;;;;;;;3.40;1.92;;;;;;;;;;5039217;28;20092;-81
2022/07/05 02:00:51;;;;;;;2.67;1.83;;;;;;;;;;5053303;28;20550;-83
2022/07/05 02:03:17;;;;;;;1.70;1.60;;;;;;;;;;5037205;28;20033;-82
2022/07/05 02:05:44;;;;;;;2.88;2.10;;;;;;;;;;5056480;28;20025;-81
2022/07/05 02:08:11;;;;;;;1.98;1.73;;;;;;;;;;5050709;28;20025;-83
2022/07/05 02:10:37;;;;;;;2.30;1.90;;;;;;;;;;5055584;28;20026;-82
2022/07/05 02:13:03;;;;;;;2.45;2.08;;;;;;;;;;5033689;28;20021;-83
2022/07/05 02:15:33;;;;;;;2.45;2.10;;;;;;;;;;5038606;28;20055;-83
2022/07/05 02:17:59;;;;;;;3.13;2.00;;;;;;;;;;5041172;28;20059;-82
2022/07/05 02:20:25;;;;;;;2.33;2.13;;;;;;;;;;5053014;28;20471;-82
2022/07/05 02:22:51;;;;;;;2.17;1.98;;;;;;;;;;5035699;28;20099;-82
2022/07/05 02:25:17;;;;;;;2.00;1.90;;;;;;;;;;5037259;28;20056;-82
2022/07/05 02:27:43;;;;;;;2.33;1.92;;;;;;;;;;5036866;28;20021;-83
2022/07/05 02:30:09;;;;;;;4.22;2.10;;;;;;;;;;5056161;28;20025;-83
2022/07/05 02:32:35;;;;;;;2.70;1.90;;;;;;;;;;5043405;28;20032;-83
2022/07/05 02:35:01;;;;;;;2.00;1.55;;;;;;;;;;5039557;28;20391;-82
2022/07/05 02:37:27;;;;;;;2.40;2.00;;;;;;;;;;5054021;28;20071;-82
2022/07/05 02:39:54;;;;;;;4.00;2.17;;;;;;;;;;5049513;28;20037;-82
2022/07/05 02:42:20;;;;;;;1.88;1.77;;;;;;;;;;5051838;28;20029;-82
2022/07/05 02:44:46;;;;;;;2.50;2.10;;;;;;;;;;5055872;28;20075;-83
2022/07/05 02:47:12;;;;;;;2.03;1.80;;;;;;;;;;5038810;28;20470;-82
2022/07/05 02:49:38;;;;;;;2.53;2.33;;;;;;;;;;5054815;28;20031;-83
2022/07/05 02:52:04;;;;;;;2.22;2.03;;;;;;;;;;5036531;28;20026;-82
2022/07/05 02:54:30;;;;;;;2.22;2.03;;;;;;;;;;5049617;28;20482;-83
2022/07/05 02:56:56;;;;;;;2.50;2.13;;;;;;;;;;5054632;28;20017;-83
2022/07/05 02:59:22;;;;;;;2.95;1.92;;;;;;;;;;5051235;28;20709;-82
2022/07/05 03:01:48;;;;;;;1.77;1.67;;;;;;;;;;5051925;28;20479;-81
2022/07/05 03:04:14;;;;;;;2.45;2.00;;;;;;;;;;5052521;28;20386;-82
2022/07/05 03:06:40;;;;;;;2.80;2.20;;;;;;;;;;5057344;28;20048;-82
2022/07/05 03:09:06;;;;;;;2.30;2.10;;;;;;;;;;5039097;28;20060;-82
2022/07/05 03:11:32;;;;;;;4.78;2.47;;;;;;;;;;5055535;28;20024;-82
2022/07/05 03:13:58;;;;;;;2.90;2.28;;;;;;;;;;5055271;28;20429;-82
2022/07/05 03:16:24;;;;;;;2.53;2.35;;;;;;;;;;5038542;28;20037;-82
2022/07/05 03:18:52;;;;;;;2.53;2.30;;;;;;;;;;5057036;28;20021;-82
2022/07/05 03:21:19;;;;;;;2.78;2.17;;;;;;;;;;5037450;28;20031;-84
2022/07/05 03:23:44;;;;;;;2.85;2.63;;;;;;;;;;5053019;28;20551;-81
2022/07/05 03:26:11;;;;;;;2.30;2.10;;;;;;;;;;5051572;28;20101;-82
2022/07/05 03:28:37;;;;;;;3.13;2.40;;;;;;;;;;5033375;28;20529;-82
2022/07/05 03:31:03;;;;;;;2.25;2.03;;;;;;;;;;5051429;28;20018;-84
2022/07/05 03:33:29;;;;;;;4.65;2.40;;;;;;;;;;5055320;28;20115;-82
2022/07/05 03:35:55;;;;;;;2.85;2.30;;;;;;;;;;5037944;28;20561;-82
2022/07/05 03:38:21;;;;;;;2.38;2.17;;;;;;;;;;5033451;28;20025;-82
2022/07/05 03:40:47;;;;;;;2.60;2.33;;;;;;;;;;5054365;28;20036;-83
2022/07/05 03:43:12;;;;;;;3.25;2.20;;;;;;;;;;5058417;28;20063;-82
2022/07/05 03:45:38;;;;;;;3.67;2.47;;;;;;;;;;5057849;28;20075;-82
2022/07/05 03:48:05;;;;;;;3.35;2.25;;;;;;;;;;5056066;28;20091;-81
2022/07/05 03:50:31;;;;;;;3.08;2.35;;;;;;;;;;5034227;28;20025;-82
2022/07/05 03:52:57;;;;;;;2.38;2.17;;;;;;;;;;5037617;28;20032;-82
2022/07/05 03:55:23;;;;;;;3.03;2.20;;;;;;;;;;5053853;28;20029;-82
2022/07/05 03:57:48;;;;;;;2.70;2.15;;;;;;;;;;5051609;28;20037;-82
2022/07/05 04:00:15;;;;;;;2.75;2.42;;;;;;;;;;5049917;28;20053;-82
2022/07/05 04:02:41;;;;;;;2.28;2.08;;;;;;;;;;5050676;28;20030;-82
2022/07/05 04:05:07;;;;;;;3.28;2.22;;;;;;;;;;5051286;28;20073;-82
2022/07/05 04:07:33;;;;;;;3.20;2.25;;;;;;;;;;5038715;28;20030;-81
2022/07/05 04:09:59;;;;;;;2.63;2.00;;;;;;;;;;5053586;28;20020;-82
2022/07/05 04:12:25;;;;;;;3.65;2.30;;;;;;;;;;5038969;28;20029;-83
2022/07/05 04:14:51;;;;;;;4.25;2.33;;;;;;;;;;5037809;28;20017;-84
2022/07/05 04:17:18;;;;;;;3.05;2.47;;;;;;;;;;5056710;28;20021;-82
2022/07/05 04:19:44;;;;;;;2.50;2.30;;;;;;;;;;5035086;28;20025;-82
2022/07/05 04:22:10;;;;;;;2.35;2.15;;;;;;;;;;5036424;28;20547;-82
2022/07/05 04:25:16;;;;;;;3.65;2.22;;;;;;;;;;5037966;28;20068;-81
2022/07/05 04:27:22;;;;;;;2.47;2.00;;;;;;;;;;5041127;28;20049;-83
2022/07/05 04:29:48;;;;;;;3.17;2.40;;;;;;;;;;5056223;28;20052;-82
2022/07/05 04:32:14;;;;;;;5.28;2.80;;;;;;;;;;5039898;28;20087;-82
2022/07/05 04:34:40;;;;;;;4.68;2.42;;;;;;;;;;5039181;28;20030;-82
2022/07/05 04:37:06;;;;;;;3.10;2.50;;;;;;;;;;5055282;28;20100;-82
2022/07/05 04:39:31;;;;;;;3.25;2.50;;;;;;;;;;5045829;28;20071;-82
2022/07/05 04:41:57;;;;;;;3.03;2.70;;;;;;;;;;5042892;28;20013;-83
2022/07/05 04:44:23;;;;;;;3.22;2.40;;;;;;;;;;5038990;28;20037;-82
2022/07/05 04:46:49;;;;;;;3.03;2.65;;;;;;;;;;5038899;28;20109;-84
2022/07/05 04:49:15;;;;;;;2.85;2.65;;;;;;;;;;5052407;28;20033;-83
2022/07/05 04:51:41;;;;;;;4.25;2.80;;;;;;;;;;5040028;28;20021;-82
2022/07/05 04:54:07;;;;;;;4.07;3.03;;;;;;;;;;5039908;28;20029;-82
2022/07/05 04:56:33;;;;;;;4.60;2.80;;;;;;;;;;5053087;28;20514;-82
2022/07/05 04:58:59;;;;;;;6.03;3.90;;;;;;;;;;5037658;28;20488;-83
2022/07/05 05:01:25;;;;;;;4.75;3.55;;;;;;;;;;5057070;28;20028;-83
2022/07/05 05:03:51;;;;;;;3.85;3.10;;;;;;;;;;5056637;28;20021;-82
2022/07/05 05:06:17;;;;;;;3.60;3.30;;;;;;;;;;5041032;28;20017;-83
2022/07/05 05:08:43;;;;;;;5.13;3.13;;;;;;;;;;5054804;28;20064;-83
2022/07/05 05:11:09;;;;;;;3.55;3.25;;;;;;;;;;5053529;28;20025;-82
2022/07/05 05:13:35;;;;;;;3.88;3.30;;;;;;;;;;5044245;28;20207;-82
2022/07/05 05:16:01;;;;;;;3.40;3.00;;;;;;;;;;5058364;28;20394;-82
2022/07/05 05:18:27;;;;;;;3.30;3.00;;;;;;;;;;5035600;28;20131;-83
2022/07/05 05:20:57;;;;;;;4.15;2.85;;;;;;;;;;5038828;28;20589;-83
2022/07/05 05:23:23;;;;;;;4.07;3.08;;;;;;;;;;5053827;28;20060;-82
2022/07/05 05:25:49;;;;;;;3.15;2.85;;;;;;;;;;5042366;28;20021;-83
2022/07/05 05:28:15;;;;;;;4.18;3.30;;;;;;;;;;5056366;28;20482;-82
2022/07/05 05:30:41;;;;;;;3.95;3.53;;;;;;;;;;5059630;28;20474;-82
2022/07/05 05:33:07;;;;;;;3.60;3.30;;;;;;;;;;5058663;28;20319;-82
2022/07/05 05:35:33;;;;;;;4.40;3.08;;;;;;;;;;5039291;28;20355;-82
2022/07/05 05:37:59;;;;;;;3.80;3.13;;;;;;;;;;5053398;28;20026;-82
2022/07/05 05:40:26;;;;;;;6.38;3.33;;;;;;;;;;5056965;28;20022;-82
2022/07/05 05:42:53;;;;;;;4.78;3.70;;;;;;;;;;5055367;28;20503;-83
2022/07/05 05:45:19;;;;;;;3.92;3.20;;;;;;;;;;5039286;28;20482;-81
2022/07/05 05:47:50;;;;;;;5.70;3.72;;;;;;;;;;5040284;28;20021;-84
2022/07/05 05:50:35;;;;;;;4.13;3.70;;;;;;;;;;5055494;28;20021;-82
2022/07/05 05:53:01;;;;;;;6.70;4.32;;;;;;;;;;5054123;28;20120;-82
2022/07/05 05:55:28;;;;;;;4.30;3.90;;;;;;;;;;5056020;28;20520;-84
2022/07/05 05:57:55;;;;;;;4.30;3.85;;;;;;;;;;5038813;28;20032;-83
2022/07/05 06:00:21;;;;;;;5.38;3.88;;;;;;;;;;5056613;28;20018;-82
2022/07/05 06:02:49;;;;;;;4.10;3.70;;;;;;;;;;5051684;28;20039;-83
2022/07/05 06:05:15;;;;;;;5.50;4.30;;;;;;;;;;5037833;28;20148;-82
2022/07/05 06:07:44;;;;;;;5.82;4.55;;;;;;;;;;5054265;28;20024;-82
2022/07/05 06:10:10;;;;;;;5.00;4.53;;;;;;;;;;5038194;28;20108;-82
2022/07/05 06:12:36;;;;;;;5.15;4.65;;;;;;;;;;5056858;28;20431;-82
2022/07/05 06:15:01;;;;;;;6.30;4.18;;;;;;;;;;5054963;28;20017;-83
2022/07/05 06:17:27;;;;;;;4.68;4.03;;;;;;;;;;5055213;28;20032;-83
2022/07/05 06:19:53;;;;;;;5.45;4.38;;;;;;;;;;5057386;28;20683;-83
2022/07/05 06:22:19;;;;;;;4.82;4.43;;;;;;;;;;5038760;28;20045;-82
2022/07/05 06:24:45;;;;;;;6.80;4.53;;;;;;;;;;5036609;28;20025;-82
2022/07/05 06:27:11;;;;;;;4.50;4.10;;;;;;;;;;5040266;28;20031;-82
2022/07/05 06:29:37;;;;;;;6.20;4.53;;;;;;;;;;5041102;28;20115;-82
2022/07/05 06:32:03;;;;;;;5.45;4.07;;;;;;;;;;5062421;28;20029;-82
2022/07/05 06:34:29;;;;;;;5.65;4.22;;;;;;;;;;5035197;28;20024;-82
2022/07/05 06:36:55;;;;;;;5.72;4.05;;;;;;;;;;5049770;28;20028;-82
2022/07/05 06:39:21;;;;;;;5.53;4.70;;;;;;;;;;5038938;28;20029;-82
2022/07/05 06:41:47;;;;;;;5.30;4.80;;;;;;;;;;5056993;28;20583;-82
2022/07/05 06:44:13;;;;;;;6.40;4.57;;;;;;;;;;5054164;28;20037;-83
2022/07/05 06:46:39;;;;;;;4.55;4.00;;;;;;;;;;5035096;28;20013;-83
2022/07/05 06:49:05;;;;;;;5.10;4.55;;;;;;;;;;5049230;28;20058;-82
2022/07/05 06:51:31;;;;;;;6.75;4.60;;;;;;;;;;5034378;28;20033;-83
2022/07/05 06:53:57;;;;;;;3.80;3.50;;;;;;;;;;5050728;28;20021;-82
2022/07/05 06:56:23;;;;;;;5.38;3.53;;;;;;;;;;5034995;28;20375;-82
2022/07/05 06:58:49;;;;;;;5.20;3.80;;;;;;;;;;5051477;28;20426;-81
2022/07/05 07:01:15;;;;;;;5.53;3.60;;;;;;;;;;5037071;28;20045;-82
2022/07/05 07:03:41;;;;;;;5.85;4.00;;;;;;;;;;5042056;28;20028;-82
2022/07/05 07:06:07;;;;;;;3.72;3.20;;;;;;;;;;5041287;28;20534;-83
2022/07/05 07:11:18;;;;;;;4.85;3.40;;;;;;;;;;5039016;28;20127;-82
2022/07/05 07:13:44;;;;;;;4.43;3.10;;;;;;;;;;5055485;28;20025;-83
2022/07/05 07:16:10;;;;;;;8.98;3.20;;;;;;;;;;5036239;28;20036;-82
2022/07/05 07:18:36;;;;;;;4.95;3.63;;;;;;;;;;5033755;28;20025;-82
2022/07/05 07:21:02;;;;;;;3.85;3.40;;;;;;;;;;5041635;28;20115;-83
2022/07/05 07:23:28;;;;;;;3.90;3.00;;;;;;;;;;5053131;28;20083;-84
2022/07/05 07:25:54;;;;;;;4.38;3.58;;;;;;;;;;5051429;28;20025;-82
2022/07/05 07:28:20;;;;;;;4.40;3.55;;;;;;;;;;5036142;28;20390;-82
2022/07/05 07:30:46;;;;;;;5.80;3.80;;;;;;;;;;5039248;28;20025;-83
2022/07/05 07:33:12;;;;;;;5.70;3.38;;;;;;;;;;5039606;28;20531;-83
2022/07/05 07:35:38;;;;;;;3.95;3.10;;;;;;;;;;5037761;28;20029;-84
2022/07/05 07:38:03;;;;;;;5.50;4.03;;;;;;;;;;5028239;28;20036;-82
2022/07/05 07:40:29;;;;;;;5.05;3.80;;;;;;;;;;5035030;28;20057;-84
2022/07/05 07:42:55;;;;;;;3.83;3.17;;;;;;;;;;5037059;28;20029;-83
2022/07/05 07:45:21;;;;;;;3.65;2.50;;;;;;;;;;5047975;28;20025;-84
2022/07/05 07:47:47;;;;;;;3.72;3.15;;;;;;;;;;5034089;28;20033;-93
2022/07/05 07:50:13;;;;;;;5.43;2.92;;;;;;;;;;5059265;28;20060;-87
2022/07/05 07:52:40;;;;;;;4.32;3.40;;;;;;;;;;5053520;28;20029;-82
2022/07/05 07:55:07;;;;;;;5.35;3.63;;;;;;;;;;5035546;28;20369;-82
2022/07/05 07:57:33;;;;;;;5.55;4.18;;;;;;;;;;5036003;28;20017;-87
2022/07/05 07:59:59;;;;;;;4.45;3.88;;;;;;;;;;5051376;28;20057;-84
2022/07/05 08:02:25;;;;;;;5.10;3.90;;;;;;;;;;5057234;28;20099;-81
2022/07/05 08:04:51;;;;;;;4.60;3.72;;;;;;;;;;5034992;28;20040;-83
2022/07/05 08:07:18;;;;;;;6.85;3.97;;;;;;;;;;5037517;28;20033;-83
2022/07/05 08:09:44;;;;;;;3.55;3.22;;;;;;;;;;5042054;28;20120;-85
2022/07/05 08:12:10;;;;;;;6.03;3.65;;;;;;;;;;5042302;28;20056;-82
2022/07/05 08:14:36;;;;;;;3.95;3.17;;;;;;;;;;5058421;28;20526;-82
2022/07/05 08:17:02;;;;;;;5.72;3.58;;;;;;;;;;5057282;28;20033;-82
2022/07/05 08:22:13;;;;;;;3.70;2.90;;;;;;;;;;5040648;28;20079;-89
2022/07/05 08:24:41;;;;;;;3.85;2.70;;;;;;;;;;5039661;28;20033;-84
2022/07/05 08:27:07;;;;;;;3.50;2.50;;;;;;;;;;5040686;28;20021;-82
2022/07/05 08:29:34;;;;;;;2.33;2.10;;;;;;;;;;5053803;28;20568;-82
2022/07/05 08:32:00;;;;;;;2.60;1.77;;;;;;;;;;5037667;28;20487;-86
2022/07/05 08:34:26;;;;;;;3.08;1.98;;;;;;;;;;5053305;28;20017;-81
2022/07/05 08:36:52;;;;;;;2.97;1.45;;;;;;;;;;5036141;28;20486;-87
2022/07/05 08:39:18;;;;;;;2.60;1.40;;;;;;;;;;5043495;28;20060;-89
2022/07/05 08:41:49;;;;;;;2.30;1.83;;;;;;;;;;5038455;28;20108;-82
2022/07/05 08:44:18;;;;;;;2.85;2.50;;;;;;;;;;5039178;28;20045;-83
2022/07/05 08:46:44;;;;;;;5.65;2.67;;;;;;;;;;5058495;28;20490;-82
2022/07/05 08:49:10;;;;;;;4.47;3.00;;;;;;;;;;5051767;28;20029;-83
2022/07/05 08:51:41;;;;;;;3.88;2.88;;;;;;;;;;5057631;28;20025;-82
2022/07/05 08:54:08;;;;;;;5.03;2.80;;;;;;;;;;5061476;28;20017;-82
2022/07/05 08:56:34;;;;;;;2.67;2.42;;;;;;;;;;5055306;28;20137;-83
2022/07/05 08:59:00;;;;;;;3.55;2.58;;;;;;;;;;5042246;28;20529;-81
2022/07/05 09:01:31;;;;;;;4.40;3.15;;;;;;;;;;5040158;28;20030;-85
2022/07/05 09:04:00;;;;;;;4.82;2.90;;;;;;;;;;5055704;28;20577;-81
2022/07/05 09:06:27;;;;;;;3.85;3.17;;;;;;;;;;5041292;28;20018;-83
2022/07/05 09:08:58;;;;;;;3.20;2.13;;;;;;;;;;5040354;28;20038;-85
2022/07/05 09:11:36;;;;;;;2.60;2.08;;;;;;;;;;5038122;28;20025;-83
2022/07/05 09:14:03;;;;;;;2.65;1.88;;;;;;;;;;5056311;28;20026;-81
2022/07/05 09:16:29;;;;;;;3.83;2.40;;;;;;;;;;5038801;28;20095;-83
2022/07/05 09:18:56;;;;;;;3.78;2.80;;;;;;;;;;5042102;28;20029;-82
2022/07/05 09:21:25;;;;;;;3.08;2.20;;;;;;;;;;5039676;28;20381;-82
2022/07/05 09:23:58;;;;;;;2.28;2.03;;;;;;;;;;5038479;28;20478;-87
2022/07/05 09:26:35;;;;;;;2.78;1.95;;;;;;;;;;5039933;28;20025;-83
2022/07/05 09:29:01;;;;;;;2.47;1.75;;;;;;;;;;5041381;28;20021;-82
2022/07/05 09:31:31;;;;;;;2.83;1.70;;;;;;;;;;5040738;28;20032;-82
2022/07/05 09:34:05;;;;;;;3.08;1.42;;;;;;;;;;5041137;28;20029;-82
2022/07/05 09:36:47;;;;;;;3.63;1.63;;;;;;;;;;5054788;28;20025;-82
2022/07/05 09:39:13;;;;;;;2.65;1.85;;;;;;;;;;5041262;28;20063;-82
2022/07/05 09:41:39;;;;;;;2.42;1.80;;;;;;;;;;5036195;28;20029;-82
2022/07/05 09:44:05;;;;;;;2.53;1.70;;;;;;;;;;5033055;28;20561;-83
2022/07/05 09:46:31;;;;;;;2.67;1.70;;;;;;;;;;5036865;28;20033;-81
2022/07/05 09:48:57;;;;;;;2.90;1.45;;;;;;;;;;5055624;28;20383;-82
2022/07/05 09:51:24;;;;;;;2.08;1.27;;;;;;;;;;5053968;28;20036;-81
2022/07/05 09:53:54;;;;;;;1.48;1.02;;;;;;;;;;5054092;28;20071;-87
2022/07/05 09:56:21;;;;;;;1.10;1.00;;;;;;;;;;5055698;28;20079;-84
2022/07/05 09:58:46;;;;;;;2.03;1.20;;;;;;;;;;5062092;28;20029;-83
2022/07/05 10:01:26;;;;;;;3.45;1.20;;;;;;;;;;5039762;28;20071;-82
2022/07/05 10:03:55;;;;;;;2.13;1.20;;;;;;;;;;5040372;28;20041;-83
2022/07/05 10:06:25;;;;;;;1.65;1.30;;;;;;;;;;5054142;28;20462;-82
2022/07/05 10:08:52;;;;;;;2.10;1.40;;;;;;;;;;5038355;28;20063;-82
2022/07/05 10:11:19;;;;;;;2.17;1.17;;;;;;;;;;5037923;28;20017;-82
2022/07/05 10:13:48;;;;;;;1.75;1.58;;;;;;;;;;5039272;28;20120;-90
2022/07/05 10:16:16;;;;;;;3.00;1.55;;;;;;;;;;5055923;28;20344;-82
2022/07/05 10:18:42;;;;;;;1.65;1.30;;;;;;;;;;5040465;28;20383;-83
2022/07/05 10:21:13;;;;;;;1.25;1.10;;;;;;;;;;5056851;28;20029;-86
2022/07/05 10:23:39;;;;;;;1.70;1.10;;;;;;;;;;5040463;28;20052;-94
2022/07/05 10:26:06;;;;;;;1.73;1.60;;;;;;;;;;5056599;28;20044;-92
2022/07/05 10:28:32;;;;;;;1.95;1.30;;;;;;;;;;5055518;28;20048;-85
2022/07/05 10:30:59;;;;;;;1.55;1.30;;;;;;;;;;5038771;28;20021;-82
2022/07/05 10:33:27;;;;;;;2.10;1.55;;;;;;;;;;5057074;28;20032;-82
2022/07/05 10:35:53;;;;;;;2.53;1.40;;;;;;;;;;5054918;28;20047;-83
2022/07/05 10:38:19;;;;;;;3.20;1.70;;;;;;;;;;5036981;28;20036;-83
2022/07/05 10:40:52;;;;;;;3.40;2.08;;;;;;;;;;5055653;28;20505;-82
2022/07/05 10:43:18;;;;;;;2.75;1.25;;;;;;;;;;5053960;28;20486;-87
2022/07/05 10:45:48;;;;;;;3.95;1.70;;;;;;;;;;5043558;28;20444;-90
2022/07/05 10:48:14;;;;;;;2.90;1.50;;;;;;;;;;5055855;28;20036;-87
2022/07/05 10:50:56;;;;;;;1.48;1.38;;;;;;;;;;5057325;28;20537;-81
2022/07/05 10:53:23;;;;;;;1.67;1.42;;;;;;;;;;5040696;28;20029;-83
2022/07/05 10:55:51;;;;;;;2.28;1.50;;;;;;;;;;5054320;28;20025;-82
2022/07/05 10:58:18;;;;;;;1.95;1.20;;;;;;;;;;5041319;28;20032;-82
2022/07/05 11:00:44;;;;;;;1.48;1.10;;;;;;;;;;5038716;28;20339;-87
2022/07/05 11:03:29;;;;;;;2.28;1.30;;;;;;;;;;5054481;28;20040;-82
2022/07/05 11:05:55;;;;;;;3.30;1.70;;;;;;;;;;5052479;28;20025;-82
2022/07/05 11:08:21;;;;;;;1.75;1.20;;;;;;;;;;5031980;28;20033;-82
2022/07/05 11:11:06;;;;;;;1.80;1.20;;;;;;;;;;5050894;28;20100;-82
2022/07/05 11:13:40;;;;;;;1.50;1.20;;;;;;;;;;5053128;28;20036;-82
2022/07/05 11:16:22;;;;;;;1.58;1.30;;;;;;;;;;5037625;28;20382;-83
2022/07/05 11:18:49;;;;;;;2.22;1.20;;;;;;;;;;5053088;28;20538;-83
2022/07/05 11:21:24;;;;;;;1.90;1.08;;;;;;;;;;5038446;28;20072;-82
2022/07/05 11:23:49;;;;;;;2.28;1.10;;;;;;;;;;5040351;28;20323;-85
2022/07/05 11:26:19;;;;;;;1.85;1.15;;;;;;;;;;5055586;28;20037;-88
2022/07/05 11:28:45;;;;;;;3.65;1.15;;;;;;;;;;5040143;28;20029;-84
2022/07/05 11:31:11;;;;;;;1.27;1.10;;;;;;;;;;5048478;28;20022;-81
2022/07/05 11:33:38;;;;;;;1.65;1.08;;;;;;;;;;5035336;28;20033;-81
2022/07/05 11:36:06;;;;;;;1.10;0.90;;;;;;;;;;5058802;28;20032;-81
2022/07/05 11:38:33;;;;;;;3.35;1.40;;;;;;;;;;5051720;28;20056;-82
2022/07/05 11:41:15;;;;;;;2.83;1.30;;;;;;;;;;5037379;28;20025;-81
2022/07/05 11:43:42;;;;;;;2.60;1.20;;;;;;;;;;5037127;28;20072;-81
2022/07/05 11:46:08;;;;;;;1.50;1.40;;;;;;;;;;5055663;28;20028;-82
2022/07/05 11:48:34;;;;;;;2.20;1.10;;;;;;;;;;5042086;28;20530;-81
2022/07/05 11:51:12;;;;;;;4.25;1.10;;;;;;;;;;5041546;28;20025;-82
2022/07/05 11:53:41;;;;;;;2.40;1.30;;;;;;;;;;5039856;28;20017;-82
2022/07/05 11:56:07;;;;;;;1.33;1.00;;;;;;;;;;5039338;28;20029;-81
2022/07/05 11:58:34;;;;;;;1.23;1.10;;;;;;;;;;5043689;28;20079;-84
2022/07/05 12:01:01;;;;;;;2.45;1.25;;;;;;;;;;5057901;28;20116;-81
2022/07/05 12:03:28;;;;;;;0.95;0.82;;;;;;;;;;5058549;28;20441;-85
2022/07/05 12:05:54;;;;;;;1.52;1.08;;;;;;;;;;5052595;28;20375;-81
2022/07/05 12:08:21;;;;;;;2.63;1.02;;;;;;;;;;5035131;28;20044;-81
2022/07/05 12:13:31;;;;;;;1.02;0.90;;;;;;;;;;5041287;28;20456;-83
2022/07/05 12:16:01;;;;;;;1.17;0.82;;;;;;;;;;5036757;28;20021;-81
2022/07/05 12:18:27;;;;;;;1.35;1.10;;;;;;;;;;5042599;28;20108;-84
2022/07/05 12:20:53;;;;;;;2.42;1.10;;;;;;;;;;5037269;28;20230;-83
2022/07/05 12:23:26;;;;;;;2.15;1.05;;;;;;;;;;5054844;28;20052;-80
2022/07/05 12:25:52;;;;;;;1.63;1.02;;;;;;;;;;5036148;28;20187;-80
2022/07/05 12:28:18;;;;;;;2.72;1.17;;;;;;;;;;5039502;28;20025;-80
2022/07/05 12:30:44;;;;;;;3.17;1.40;;;;;;;;;;5034486;28;20061;-79
2022/07/05 12:33:12;;;;;;;2.63;1.30;;;;;;;;;;5054480;28;20029;-79
2022/07/05 12:35:42;;;;;;;1.30;1.20;;;;;;;;;;5035292;28;20135;-83
2022/07/05 12:38:16;;;;;;;1.35;1.15;;;;;;;;;;5042819;28;20056;-80
2022/07/05 12:40:43;;;;;;;4.72;1.15;;;;;;;;;;5053421;28;20025;-80
2022/07/05 12:43:13;;;;;;;2.03;1.13;;;;;;;;;;5040733;28;20036;-80
2022/07/05 12:45:41;;;;;;;1.75;1.20;;;;;;;;;;5055511;28;20029;-79
2022/07/05 12:48:07;;;;;;;3.70;1.15;;;;;;;;;;5055598;28;20017;-80
2022/07/05 12:50:50;;;;;;;2.08;1.20;;;;;;;;;;5053086;28;20334;-80
2022/07/05 12:59:01;;;;;;;2.95;1.20;;;;;;;;;;5035782;28;20041;-79
2022/07/05 13:01:37;;;;;;;2.28;1.35;;;;;;;;;;5053592;28;20052;-80
2022/07/05 13:04:03;;;;;;;1.92;1.42;;;;;;;;;;5056959;28;20064;-81
2022/07/05 13:06:49;;;;;;;1.30;1.10;;;;;;;;;;5061376;28;20022;-80
2022/07/05 13:09:16;;;;;;;2.03;1.40;;;;;;;;;;5036101;28;20134;-79
2022/07/05 13:11:42;;;;;;;2.47;1.30;;;;;;;;;;5057227;28;20031;-79
2022/07/05 13:14:08;;;;;;;3.63;1.52;;;;;;;;;;5059088;28;20013;-81
2022/07/05 13:16:34;;;;;;;3.58;1.10;;;;;;;;;;5051228;28;20036;-79
2022/07/05 13:19:11;;;;;;;2.85;1.00;;;;;;;;;;5042522;28;20018;-79
2022/07/05 13:21:37;;;;;;;2.30;1.35;;;;;;;;;;5057496;28;20148;-79
2022/07/05 13:24:03;;;;;;;1.67;1.30;;;;;;;;;;5055246;28;20464;-80
2022/07/05 13:26:29;;;;;;;2.30;1.52;;;;;;;;;;5043894;28;20028;-82
2022/07/05 13:28:55;;;;;;;1.98;1.10;;;;;;;;;;5039659;28;20025;-81
2022/07/05 13:31:21;;;;;;;1.67;1.38;;;;;;;;;;5041134;28;20021;-81
2022/07/05 13:33:47;;;;;;;2.10;1.00;;;;;;;;;;5037968;28;20029;-81
2022/07/05 13:36:13;;;;;;;3.72;1.30;;;;;;;;;;5036719;28;20036;-79
2022/07/05 13:38:39;;;;;;;1.25;1.15;;;;;;;;;;5051402;28;20026;-80
2022/07/05 13:41:05;;;;;;;2.10;1.20;;;;;;;;;;5036192;28;20026;-80
2022/07/05 13:43:31;;;;;;;2.45;1.20;;;;;;;;;;5035679;28;20045;-79
2022/07/05 13:45:57;;;;;;;1.83;1.23;;;;;;;;;;5043402;28;20029;-80
2022/07/05 13:48:23;;;;;;;2.67;1.10;;;;;;;;;;5038133;28;20021;-79
2022/07/05 13:50:49;;;;;;;1.30;1.20;;;;;;;;;;5039695;28;20021;-79
2022/07/05 13:53:15;;;;;;;2.13;1.27;;;;;;;;;;5037761;28;20043;-80
2022/07/05 13:55:41;;;;;;;1.48;1.05;;;;;;;;;;5054431;28;20024;-81
2022/07/05 13:58:07;;;;;;;1.55;1.10;;;;;;;;;;5057871;28;20025;-81
2022/07/05 14:00:33;;;;;;;2.22;1.02;;;;;;;;;;5039654;28;20037;-81
2022/07/05 14:02:59;;;;;;;1.85;0.98;;;;;;;;;;5038569;28;20029;-80
2022/07/05 14:05:24;;;;;;;2.45;1.08;;;;;;;;;;5054521;28;20031;-79
2022/07/05 14:07:50;;;;;;;3.22;1.20;;;;;;;;;;5057478;28;20029;-80
2022/07/05 14:10:16;;;;;;;1.75;1.27;;;;;;;;;;5039183;28;20030;-81
2022/07/05 14:12:42;;;;;;;1.20;1.10;;;;;;;;;;5056466;28;20059;-81
2022/07/05 14:15:09;;;;;;;2.25;1.15;;;;;;;;;;5036958;28;20022;-81
2022/07/05 14:17:34;;;;;;;1.35;1.25;;;;;;;;;;5038692;28;20137;-81
2022/07/05 14:20:01;;;;;;;1.50;1.40;;;;;;;;;;5054175;28;20450;-81
2022/07/05 14:22:26;;;;;;;2.67;1.20;;;;;;;;;;5033403;28;20052;-81
2022/07/05 14:24:52;;;;;;;3.80;1.20;;;;;;;;;;5040702;28;20036;-81
2022/07/05 14:27:18;;;;;;;1.48;1.10;;;;;;;;;;5036607;28;20055;-81
2022/07/05 14:29:44;;;;;;;2.00;1.08;;;;;;;;;;5044855;28;20036;-84
2022/07/05 14:32:10;;;;;;;2.65;1.20;;;;;;;;;;5060928;28;20025;-81
2022/07/05 14:34:36;;;;;;;2.05;0.90;;;;;;;;;;5034424;28;20043;-80
2022/07/05 14:37:02;;;;;;;1.75;0.98;;;;;;;;;;5041040;28;20116;-81
2022/07/05 14:39:28;;;;;;;2.80;1.20;;;;;;;;;;5053558;28;20055;-81
2022/07/05 14:41:55;;;;;;;2.38;1.20;;;;;;;;;;5039667;28;20029;-81
2022/07/05 14:44:21;;;;;;;2.97;1.10;;;;;;;;;;5036746;28;20036;-81
2022/07/05 14:46:47;;;;;;;1.60;1.08;;;;;;;;;;5041212;28;20363;-81
2022/07/05 14:49:13;;;;;;;3.85;1.05;;;;;;;;;;5041253;28;20112;-83
2022/07/05 14:51:39;;;;;;;1.33;1.23;;;;;;;;;;5055726;28;20108;-82
2022/07/05 14:54:05;;;;;;;2.28;1.30;;;;;;;;;;5042798;28;20116;-82
2022/07/05 14:56:31;;;;;;;2.33;1.30;;;;;;;;;;5053460;28;20028;-84